Time;durP1;ratioP1;P1;durP2;ratioP2;P2;SDS_P1;SDS_P2;PMS_P1;PMS_P2;Temp;Humidity;BMP_temperature;BMP_pressure;BME280_temperature;BME280_humidity;BME280_pressure;Samples;Min_cycle;Max_cycle;Signal;HPM_P1;HPM_P2
2023/04/21 00:01:38;;;;;;;9.18;4.00;;;;;;;20.21;63.01;98013.25;4831992;29;20523;-59
2023/04/21 00:04:08;;;;;;;8.32;3.30;;;;;;;20.11;62.60;98009.50;4833980;29;20545;-60
2023/04/21 00:06:40;;;;;;;10.27;3.25;;;;;;;20.12;63.00;98021.06;4834023;29;20069;-60
2023/04/21 00:09:10;;;;;;;8.85;3.63;;;;;;;20.10;63.16;98024.00;4830708;29;20065;-59
2023/04/21 00:11:39;;;;;;;7.38;3.17;;;;;;;20.07;63.38;98026.44;4830113;29;20058;-59
2023/04/21 00:14:08;;;;;;;6.47;3.17;;;;;;;20.08;63.37;98028.06;4829565;29;20512;-60
2023/04/21 00:16:38;;;;;;;5.18;2.78;;;;;;;20.04;63.28;98030.47;4818142;29;20061;-60
2023/04/21 00:19:07;;;;;;;7.78;3.15;;;;;;;20.03;63.29;98039.63;4831215;29;20077;-59
2023/04/21 00:21:36;;;;;;;6.53;2.50;;;;;;;19.99;62.97;98038.53;4821079;29;20150;-60
2023/04/21 00:24:06;;;;;;;5.18;2.22;;;;;;;19.95;63.14;98040.16;4813645;29;20489;-60
2023/04/21 00:26:35;;;;;;;6.20;2.90;;;;;;;19.95;63.20;98048.22;4815002;29;20058;-60
2023/04/21 00:29:05;;;;;;;5.22;2.45;;;;;;;19.96;63.04;98054.41;4814264;29;20253;-60
2023/04/21 00:31:35;;;;;;;8.95;2.72;;;;;;;19.95;62.58;98050.91;4798371;29;20539;-59
2023/04/21 00:34:04;;;;;;;4.60;2.50;;;;;;;19.95;62.38;98055.47;4798552;29;20516;-60
2023/04/21 00:36:34;;;;;;;6.82;3.33;;;;;;;19.96;62.23;98059.78;4831496;29;20470;-61
2023/04/21 00:39:04;;;;;;;7.88;3.20;;;;;;;19.96;62.32;98060.56;4835329;29;20414;-60
2023/04/21 00:41:35;;;;;;;8.43;3.80;;;;;;;19.96;62.53;98054.41;4801567;29;20050;-60
2023/04/21 00:44:06;;;;;;;10.57;3.25;;;;;;;19.96;62.23;98046.34;4830128;29;20038;-60
2023/04/21 00:46:37;;;;;;;4.07;2.38;;;;;;;19.99;62.09;98045.78;4807014;29;20054;-60
2023/04/21 00:49:07;;;;;;;7.88;3.22;;;;;;;19.98;62.22;98038.81;4839765;29;20059;-60
2023/04/21 00:51:36;;;;;;;8.90;3.13;;;;;;;20.01;61.61;98041.75;4839561;29;20057;-60
2023/04/21 00:54:08;;;;;;;5.22;2.25;;;;;;;20.05;61.07;98037.44;4816268;29;20053;-61
2023/04/21 00:56:38;;;;;;;6.88;2.40;;;;;;;20.08;60.81;98041.50;4816746;29;20050;-60
2023/04/21 00:59:07;;;;;;;5.90;2.22;;;;;;;20.14;60.37;98046.59;4835974;29;20054;-61
2023/04/21 01:01:37;;;;;;;4.45;2.08;;;;;;;20.19;60.12;98049.28;4816284;29;20769;-59
2023/04/21 01:04:09;;;;;;;9.07;2.22;;;;;;;20.26;59.48;98056.28;4815794;29;20053;-60
2023/04/21 01:07:37;;;;;;;6.30;2.10;;;;;;;20.31;58.76;98062.50;4817235;29;20122;-60
2023/04/21 01:10:08;;;;;;;6.63;2.65;;;;;;;20.34;59.46;98077.28;4829041;29;20057;-60
2023/04/21 01:12:47;;;;;;;6.88;2.28;;;;;;;20.37;59.73;98072.16;4816369;29;20118;-61
2023/04/21 01:15:17;;;;;;;9.32;2.03;;;;;;;20.41;59.40;98073.22;4816915;29;20668;-60
2023/04/21 01:17:46;;;;;;;4.05;2.17;;;;;;;20.45;59.63;98078.84;4809541;29;20061;-60
2023/04/21 01:20:16;;;;;;;7.15;2.10;;;;;;;20.48;58.53;98079.16;4817120;29;20670;-60
2023/04/21 01:23:17;;;;;;;9.30;2.58;;;;;;;20.52;58.45;98087.47;4832203;29;20061;-60
2023/04/21 01:25:47;;;;;;;3.53;2.15;;;;;;;20.55;58.67;98095.00;4832654;29;20092;-60
2023/04/21 01:28:25;;;;;;;4.35;2.17;;;;;;;20.61;58.62;98104.69;4822671;29;20114;-60
2023/04/21 01:30:54;;;;;;;5.00;2.10;;;;;;;20.68;57.98;98104.38;4815341;29;20078;-60
2023/04/21 01:33:24;;;;;;;8.98;2.20;;;;;;;20.71;58.26;98101.97;4812200;29;20054;-61
2023/04/21 01:35:54;;;;;;;8.55;2.33;;;;;;;20.76;58.56;98107.31;4798569;29;20062;-60
2023/04/21 01:38:23;;;;;;;6.05;2.35;;;;;;;20.85;57.45;98118.34;4810011;29;20119;-60
2023/04/21 01:40:54;;;;;;;5.95;2.28;;;;;;;20.94;56.75;98125.59;4815943;29;20058;-60
2023/04/21 01:43:25;;;;;;;6.45;2.20;;;;;;;20.98;56.24;98123.16;4813216;29;20054;-60
2023/04/21 01:45:56;;;;;;;10.55;2.88;;;;;;;21.05;55.39;98121.00;4798040;29;20058;-60
2023/04/21 01:48:26;;;;;;;3.95;1.92;;;;;;;21.12;55.27;98134.97;4822260;29;20810;-60
2023/04/21 01:50:55;;;;;;;6.93;2.03;;;;;;;21.19;55.29;98127.44;4809698;29;20057;-60
2023/04/21 01:53:55;;;;;;;8.38;2.10;;;;;;;21.25;54.17;98139.81;4823887;29;20059;-60
2023/04/21 01:56:27;;;;;;;7.63;2.08;;;;;;;21.33;54.84;98136.53;4796523;29;20055;-60
2023/04/21 01:58:56;;;;;;;7.25;2.38;;;;;;;21.46;54.42;98138.63;4795817;29;20155;-60
2023/04/21 02:01:26;;;;;;;5.18;2.17;;;;;;;21.56;54.35;98127.00;4814661;29;20054;-60
2023/04/21 02:03:56;;;;;;;6.20;2.22;;;;;;;21.73;54.17;98134.75;4819045;29;20065;-61
2023/04/21 02:06:25;;;;;;;8.10;1.83;;;;;;;21.89;53.58;98136.25;4814156;29;20050;-60
2023/04/21 02:08:54;;;;;;;9.10;2.42;;;;;;;22.06;53.31;98131.31;4814117;29;20056;-60
2023/04/21 02:11:27;;;;;;;5.72;1.75;;;;;;;22.21;52.67;98133.94;4826025;29;20077;-60
2023/04/21 02:13:57;;;;;;;6.18;1.83;;;;;;;22.45;51.72;98149.38;4815169;29;20106;-61
2023/04/21 02:16:27;;;;;;;7.43;2.35;;;;;;;23.02;50.62;98144.00;4823997;29;20068;-61
2023/04/21 02:18:58;;;;;;;11.30;2.40;;;;;;;24.07;47.72;98149.19;4817180;29;20077;-60
2023/04/21 02:21:28;;;;;;;6.63;2.30;;;;;;;24.97;46.69;98156.13;4814448;29;20053;-60
2023/04/21 02:23:58;;;;;;;7.60;2.28;;;;;;;25.21;46.03;98161.38;4815623;29;20717;-60
2023/04/21 02:26:27;;;;;;;8.93;2.33;;;;;;;25.09;45.70;98166.50;4830447;29;20118;-60
2023/04/21 02:29:00;;;;;;;6.45;2.13;;;;;;;25.04;45.67;98167.41;4832473;29;20166;-60
2023/04/21 02:31:29;;;;;;;3.90;2.40;;;;;;;25.11;44.74;98161.56;4828203;29;20058;-61
2023/04/21 02:34:00;;;;;;;6.80;2.40;;;;;;;25.43;44.41;98166.91;4817102;29;20490;-60
2023/04/21 02:36:31;;;;;;;6.80;2.42;;;;;;;25.78;43.02;98166.22;4814666;29;20065;-60
2023/04/21 02:39:00;;;;;;;4.75;2.08;;;;;;;26.17;42.86;98168.31;4833327;29;20042;-60
2023/04/21 02:41:30;;;;;;;8.10;2.42;;;;;;;26.10;42.23;98169.84;4814724;29;20639;-59
2023/04/21 02:44:00;;;;;;;8.32;2.88;;;;;;;26.07;42.49;98173.19;4830322;29;20050;-60
2023/04/21 02:46:30;;;;;;;5.57;2.28;;;;;;;25.57;42.24;98184.03;4816214;29;20169;-60
2023/04/21 02:48:59;;;;;;;9.15;2.58;;;;;;;25.35;43.81;98200.16;4813531;29;20096;-60
2023/04/21 02:51:39;;;;;;;5.82;2.45;;;;;;;24.89;44.40;98203.69;4816122;29;20062;-60
2023/04/21 02:54:08;;;;;;;6.22;2.00;;;;;;;25.12;44.46;98193.81;4811294;29;20123;-60
2023/04/21 02:56:37;;;;;;;6.07;2.28;;;;;;;24.96;45.25;98204.09;4813654;29;20065;-61
2023/04/21 02:59:15;;;;;;;8.40;2.38;;;;;;;24.78;45.75;98202.25;4811924;29;20508;-60
2023/04/21 03:01:48;;;;;;;5.55;2.97;;;;;;;24.41;46.97;98202.28;4811636;29;20525;-60
2023/04/21 03:04:18;;;;;;;10.05;2.55;;;;;;;24.12;47.83;98205.91;4806203;29;20514;-60
2023/04/21 03:06:57;;;;;;;6.45;2.20;;;;;;;23.89;46.90;98212.22;4826420;29;20051;-60
2023/04/21 03:09:26;;;;;;;7.57;2.20;;;;;;;23.72;46.33;98207.25;4812956;29;20106;-60
2023/04/21 03:12:00;;;;;;;5.10;2.70;;;;;;;23.68;46.45;98216.25;4810749;29;20058;-60
2023/04/21 03:15:01;;;;;;;8.68;2.60;;;;;;;23.75;49.27;98216.72;4817200;29;20065;-59
2023/04/21 03:17:31;;;;;;;4.18;2.25;;;;;;;23.79;49.27;98217.75;4817759;29;20054;-60
2023/04/21 03:20:03;;;;;;;14.52;2.80;;;;;;;23.83;48.27;98226.06;4818601;29;20398;-60
2023/04/21 03:22:34;;;;;;;11.47;2.77;;;;;;;23.91;48.24;98225.41;4816557;29;20122;-59
2023/04/21 03:25:35;;;;;;;10.10;2.35;;;;;;;23.90;47.77;98227.31;4802733;29;20207;-60
2023/04/21 03:28:04;;;;;;;7.63;2.90;;;;;;;23.85;48.14;98234.72;4815061;29;20123;-60
2023/04/21 03:30:34;;;;;;;6.47;2.38;;;;;;;23.86;49.25;98236.31;4817490;29;20064;-61
2023/04/21 03:33:04;;;;;;;8.20;2.20;;;;;;;23.86;49.54;98239.00;4817083;29;20639;-61
2023/04/21 03:35:33;;;;;;;8.38;2.65;;;;;;;23.88;49.61;98245.75;4818870;29;20115;-60
2023/04/21 03:38:02;;;;;;;5.05;2.35;;;;;;;23.93;49.42;98243.00;4808472;29;20055;-61
2023/04/21 03:40:32;;;;;;;3.67;2.22;;;;;;;23.95;49.51;98253.50;4799285;29;20381;-60
2023/04/21 03:43:03;;;;;;;5.68;2.33;;;;;;;24.00;49.75;98256.94;4824414;29;20066;-61
2023/04/21 03:45:35;;;;;;;9.48;2.17;;;;;;;24.01;48.86;98261.28;4829976;29;20086;-61
2023/04/21 03:48:05;;;;;;;6.75;2.30;;;;;;;24.08;49.69;98263.63;4810049;29;20138;-60
2023/04/21 03:50:34;;;;;;;9.05;3.33;;;;;;;24.08;49.94;98267.13;4818101;29;20054;-60
2023/04/21 03:53:03;;;;;;;10.07;2.00;;;;;;;24.12;49.58;98270.06;4835775;29;20390;-61
2023/04/21 03:56:05;;;;;;;5.13;2.38;;;;;;;24.19;49.23;98278.66;4835953;29;20065;-60
2023/04/21 03:58:34;;;;;;;5.50;2.25;;;;;;;24.22;49.09;98278.06;4830421;29;20054;-61
2023/04/21 04:01:06;;;;;;;7.63;1.98;;;;;;;24.34;48.89;98288.50;4835488;29;20563;-60
2023/04/21 04:03:35;;;;;;;10.05;3.22;;;;;;;24.44;45.77;98282.91;4829936;29;20046;-61
2023/04/21 04:06:05;;;;;;;7.90;2.40;;;;;;;24.46;47.48;98286.16;4833107;29;20060;-60
2023/04/21 04:08:35;;;;;;;5.28;2.25;;;;;;;24.64;45.30;98292.66;4835114;29;20210;-62
2023/04/21 04:11:04;;;;;;;10.20;2.63;;;;;;;24.76;45.86;98291.09;4835262;29;20054;-61
2023/04/21 04:13:34;;;;;;;10.40;2.65;;;;;;;24.82;46.84;98292.66;4830872;29;20057;-61
2023/04/21 04:16:04;;;;;;;11.93;3.70;;;;;;;25.07;45.00;98296.06;4817992;29;20054;-61
2023/04/21 04:18:33;;;;;;;118.38;8.80;;;;;;;25.17;45.53;98295.91;4816252;29;20061;-61
2023/04/21 04:21:06;;;;;;;48.83;5.68;;;;;;;25.36;45.36;98307.47;4830348;29;20054;-60
2023/04/21 04:23:36;;;;;;;11.90;3.33;;;;;;;25.56;44.35;98303.66;4834573;29;20057;-60
2023/04/21 04:26:05;;;;;;;8.13;2.70;;;;;;;25.71;45.19;98303.38;4835288;29;20105;-60
2023/04/21 04:28:34;;;;;;;5.68;2.63;;;;;;;25.94;43.04;98297.72;4820118;29;20065;-61
2023/04/21 04:31:04;;;;;;;6.60;2.88;;;;;;;26.27;42.38;98297.66;4827051;29;20118;-59
2023/04/21 04:33:33;;;;;;;5.93;2.40;;;;;;;26.74;38.53;98290.88;4834601;29;20069;-58
2023/04/21 04:36:03;;;;;;;7.03;1.88;;;;;;;26.85;41.31;98296.88;4814209;29;20049;-57
2023/04/21 04:38:34;;;;;;;6.22;2.17;;;;;;;26.98;41.54;98299.56;4833127;29;20062;-60
2023/04/21 04:41:03;;;;;;;7.97;2.00;;;;;;;27.36;40.14;98291.00;4834884;29;20062;-60
2023/04/21 04:43:35;;;;;;;4.18;2.53;;;;;;;27.41;41.12;98305.28;4835692;29;20073;-59
2023/04/21 04:46:07;;;;;;;6.73;2.37;;;;;;;27.76;40.75;98308.19;4834587;29;20675;-60
2023/04/21 04:48:37;;;;;;;5.53;2.40;;;;;;;27.90;39.86;98311.63;4814367;29;20058;-59
2023/04/21 04:51:07;;;;;;;7.40;1.98;;;;;;;28.03;39.19;98313.44;4833367;29;20056;-55
2023/04/21 04:53:37;;;;;;;4.43;1.80;;;;;;;27.99;38.29;98310.53;4818988;29;20057;-60
2023/04/21 04:56:06;;;;;;;15.00;2.15;;;;;;;27.96;39.27;98322.06;4834593;29;20375;-60
2023/04/21 04:58:35;;;;;;;4.35;1.40;;;;;;;28.10;37.32;98320.03;4830699;29;20471;-60
2023/04/21 05:01:15;;;;;;;7.22;1.90;;;;;;;28.11;37.49;98318.91;4833287;29;20133;-59
2023/04/21 05:03:45;;;;;;;6.30;1.65;;;;;;;28.05;38.55;98319.38;4821839;29;20050;-61
2023/04/21 05:06:14;;;;;;;7.95;2.05;;;;;;;27.82;39.51;98326.81;4830581;29;20074;-58
2023/04/21 05:08:44;;;;;;;9.57;2.25;;;;;;;27.91;40.62;98324.13;4832096;29;20085;-59
2023/04/21 05:11:13;;;;;;;10.55;2.88;;;;;;;27.72;39.85;98324.34;4833896;29;20129;-56
2023/04/21 05:13:42;;;;;;;11.20;2.85;;;;;;;27.75;40.47;98333.81;4824551;29;20050;-58
2023/04/21 05:17:09;;;;;;;6.60;2.88;;;;;;;27.97;40.67;98331.03;4832007;29;20065;-54
2023/04/21 05:19:39;;;;;;;7.30;2.15;;;;;;;27.98;39.29;98324.44;4834212;29;20058;-55
2023/04/21 05:22:09;;;;;;;9.35;2.00;;;;;;;27.99;39.32;98328.78;4831783;29;20382;-56
2023/04/21 05:24:41;;;;;;;9.43;2.10;;;;;;;28.01;39.58;98327.38;4814541;29;20115;-55
2023/04/21 05:28:08;;;;;;;4.45;1.90;;;;;;;28.22;39.64;98324.09;4826334;29;20064;-55
2023/04/21 05:31:37;;;;;;;12.05;2.53;;;;;;;28.32;42.20;98324.59;4823555;29;20199;-60
2023/04/21 05:35:04;;;;;;;7.82;2.00;;;;;;;28.31;38.36;98311.28;4825626;29;20042;-59
2023/04/21 05:38:32;;;;;;;7.40;1.65;;;;;;;28.85;39.81;98309.94;4832022;29;20061;-63
2023/04/21 05:41:03;;;;;;;12.18;2.42;;;;;;;29.10;37.98;98295.47;4820828;29;20050;-65
2023/04/21 05:43:33;;;;;;;6.80;1.98;;;;;;;29.48;39.29;98301.03;4832525;29;20053;-60
2023/04/21 05:46:08;;;;;;;4.65;2.20;;;;;;;29.10;39.73;98291.94;4829007;29;21445;-64
2023/04/21 05:48:39;;;;;;;4.40;1.65;;;;;;;29.06;37.55;98291.78;4830850;29;20161;-61
2023/04/21 05:51:14;;;;;;;7.10;2.28;;;;;;;29.07;40.45;98287.13;4812748;29;20077;-61
2023/04/21 05:53:45;;;;;;;10.60;2.22;;;;;;;29.61;37.83;98271.94;4830107;29;22241;-68
2023/04/21 05:56:15;;;;;;;6.95;2.08;;;;;;;30.06;33.04;98278.47;4830144;29;20053;-64
2023/04/21 05:58:44;;;;;;;5.55;2.08;;;;;;;30.08;35.08;98275.44;4790751;29;20138;-68
2023/04/21 06:01:14;;;;;;;7.18;2.00;;;;;;;30.57;32.41;98271.13;4828036;29;20134;-67
2023/04/21 06:03:44;;;;;;;6.90;2.38;;;;;;;29.88;30.69;98263.31;4831900;29;20081;-66
2023/04/21 06:06:14;;;;;;;6.30;1.88;;;;;;;30.75;36.93;98275.31;4817054;29;20053;-66
2023/04/21 06:08:43;;;;;;;11.15;2.28;;;;;;;30.66;30.90;98263.63;4832262;29;20108;-63
2023/04/21 06:11:45;;;;;;;10.07;2.15;;;;;;;30.92;31.22;98261.47;4817637;29;20371;-67
2023/04/21 06:14:41;;;;;;;15.00;2.47;;;;;;;31.08;31.07;98267.94;4828047;29;20054;-72
2023/04/21 06:17:10;;;;;;;7.03;2.10;;;;;;;31.26;29.81;98265.81;4829752;29;20057;-66
2023/04/21 06:19:40;;;;;;;11.80;2.17;;;;;;;31.38;29.31;98273.28;4831896;29;20046;-69
2023/04/21 06:22:10;;;;;;;6.93;2.22;;;;;;;31.45;32.79;98273.50;4830026;29;20153;-69
2023/04/21 06:24:39;;;;;;;5.82;2.17;;;;;;;31.09;30.02;98266.00;4819086;29;20114;-65
2023/04/21 06:27:12;;;;;;;11.60;2.75;;;;;;;30.73;32.42;98267.44;4831177;29;20065;-67
2023/04/21 06:29:44;;;;;;;7.45;2.40;;;;;;;30.94;31.15;98267.38;4812318;29;20153;-65
2023/04/21 06:32:17;;;;;;;6.03;2.42;;;;;;;30.55;30.74;98271.44;4816733;29;20057;-66
2023/04/21 06:34:46;;;;;;;8.27;2.08;;;;;;;31.09;33.24;98272.28;4832633;29;20501;-66
2023/04/21 06:37:15;;;;;;;13.00;2.25;;;;;;;31.28;29.37;98269.03;4822307;29;20054;-67
2023/04/21 06:39:45;;;;;;;6.35;2.30;;;;;;;31.35;29.12;98272.00;4816299;29;20458;-65
2023/04/21 06:42:15;;;;;;;5.85;2.42;;;;;;;31.36;31.12;98281.00;4831535;29;20050;-66
2023/04/21 06:45:48;;;;;;;7.30;2.30;;;;;;;31.09;27.68;98271.47;4809324;29;20527;-66
2023/04/21 06:48:19;;;;;;;8.57;2.40;;;;;;;31.72;30.68;98269.34;4818532;29;20061;-66
2023/04/21 06:50:49;;;;;;;6.97;2.00;;;;;;;31.63;31.75;98275.75;4811429;29;20432;-65
2023/04/21 06:53:20;;;;;;;9.13;2.58;;;;;;;31.40;27.76;98281.94;4809811;29;20835;-65
2023/04/21 06:56:50;;;;;;;8.23;2.40;;;;;;;31.61;28.52;98274.47;4809935;29;20066;-67
2023/04/21 07:00:17;;;;;;;9.30;2.33;;;;;;;31.51;30.44;98270.19;4817207;29;20079;-67
2023/04/21 07:03:44;;;;;;;12.38;2.75;;;;;;;31.23;30.30;98266.50;4812962;29;20110;-66
2023/04/21 07:07:13;;;;;;;11.43;3.03;;;;;;;31.17;28.87;98260.44;4821030;29;20068;-66
2023/04/21 07:10:40;;;;;;;9.88;3.05;;;;;;;30.61;28.86;98261.09;4813767;29;20080;-67
2023/04/21 07:13:10;;;;;;;10.52;2.35;;;;;;;30.62;27.29;98249.03;4812709;29;20462;-61
2023/04/21 07:15:40;;;;;;;7.30;2.50;;;;;;;30.34;29.76;98246.00;4809558;29;20120;-63
2023/04/21 07:18:10;;;;;;;9.15;2.60;;;;;;;30.76;30.02;98244.88;4814311;29;20135;-65
2023/04/21 07:20:39;;;;;;;6.82;2.50;;;;;;;31.06;31.58;98242.06;4809314;29;20811;-68
2023/04/21 07:23:08;;;;;;;9.00;2.78;;;;;;;31.29;30.00;98237.75;4811221;29;20615;-65
2023/04/21 07:26:35;;;;;;;8.73;3.22;;;;;;;31.57;31.40;98233.28;4813493;29;20069;-64
2023/04/21 07:30:05;;;;;;;9.40;2.72;;;;;;;31.58;30.41;98232.16;4813141;29;20130;-66
2023/04/21 07:33:32;;;;;;;12.73;2.30;;;;;;;31.49;28.49;98227.88;4812525;29;20066;-63
2023/04/21 07:36:02;;;;;;;9.90;2.67;;;;;;;31.25;30.23;98231.38;4807394;29;20114;-67
2023/04/21 07:39:29;;;;;;;10.57;2.75;;;;;;;31.36;30.45;98221.59;4805757;29;20068;-63
2023/04/21 07:41:59;;;;;;;10.93;2.70;;;;;;;31.19;29.68;98216.31;4808196;29;20054;-65
2023/04/21 07:44:29;;;;;;;8.80;2.80;;;;;;;30.83;26.74;98208.00;4810115;29;20061;-65
2023/04/21 07:46:58;;;;;;;6.38;2.50;;;;;;;30.85;28.07;98208.47;4818436;29;20872;-68
2023/04/21 07:49:27;;;;;;;14.95;2.40;;;;;;;31.09;30.94;98206.63;4816174;29;20592;-68
2023/04/21 07:51:57;;;;;;;11.43;3.03;;;;;;;31.21;30.72;98206.63;4832140;29;20050;-65
2023/04/21 07:54:27;;;;;;;13.70;3.08;;;;;;;31.27;29.21;98212.69;4822507;29;20114;-69
2023/04/21 07:57:01;;;;;;;7.53;2.92;;;;;;;31.03;30.51;98201.69;4824946;29;20064;-67
2023/04/21 07:59:32;;;;;;;12.23;2.72;;;;;;;31.40;30.87;98200.63;4811150;29;20114;-68
2023/04/21 08:02:02;;;;;;;8.38;3.10;;;;;;;31.56;27.85;98196.09;4828882;29;20076;-72
2023/04/21 08:04:32;;;;;;;8.98;2.65;;;;;;;31.40;28.65;98194.34;4819374;29;20061;-69
2023/04/21 08:07:02;;;;;;;21.33;2.55;;;;;;;31.23;28.02;98189.06;4827846;29;20054;-68
2023/04/21 08:09:32;;;;;;;14.68;3.20;;;;;;;31.26;28.71;98180.19;4809361;29;20165;-71
2023/04/21 08:15:07;;;;;;;9.07;3.40;;;;;;;31.41;26.75;98172.09;4822102;29;20779;-66
2023/04/21 08:17:38;;;;;;;20.52;3.85;;;;;;;31.38;27.64;98164.56;4821674;29;20054;-65
2023/04/21 08:20:08;;;;;;;9.73;2.60;;;;;;;31.40;28.95;98162.28;4805670;29;20046;-67
2023/04/21 08:22:38;;;;;;;13.93;2.72;;;;;;;31.21;30.29;98153.84;4828143;29;20144;-68
2023/04/21 08:25:08;;;;;;;12.57;2.67;;;;;;;31.46;30.87;98149.19;4813032;29;20168;-66
2023/04/21 08:27:39;;;;;;;16.95;3.22;;;;;;;31.43;29.51;98149.84;4825874;29;20565;-64
2023/04/21 08:30:09;;;;;;;12.15;3.75;;;;;;;31.35;30.06;98148.03;4820893;29;20131;-67
2023/04/21 08:36:13;;;;;;;13.80;2.70;;;;;;;31.41;28.29;98144.75;4821356;29;20485;-63
2023/04/21 08:38:56;;;;;;;7.85;2.67;;;;;;;31.17;27.42;98136.50;4819290;29;20053;-67
2023/04/21 08:41:26;;;;;;;11.18;2.95;;;;;;;30.71;26.83;98138.44;4820191;29;20060;-66
2023/04/21 08:43:56;;;;;;;7.93;2.45;;;;;;;30.59;31.09;98132.94;4801400;29;20050;-70
2023/04/21 08:46:27;;;;;;;15.25;2.88;;;;;;;30.69;25.88;98143.47;4807625;29;20493;-67
2023/04/21 08:48:58;;;;;;;5.50;2.40;;;;;;;30.89;26.21;98128.09;4778186;29;20051;-66
2023/04/21 08:51:29;;;;;;;7.18;2.60;;;;;;;30.85;26.82;98121.72;4804299;29;20143;-65
2023/04/21 08:53:59;;;;;;;8.93;2.70;;;;;;;30.92;29.77;98132.13;4801506;29;20124;-69
2023/04/21 08:56:28;;;;;;;15.02;2.78;;;;;;;30.95;29.05;98124.03;4804492;29;20062;-63
2023/04/21 08:58:57;;;;;;;14.02;2.58;;;;;;;30.66;25.68;98133.22;4819174;29;20575;-67
2023/04/21 09:01:27;;;;;;;12.88;3.13;;;;;;;30.50;29.39;98124.03;4806127;29;20783;-68
2023/04/21 09:04:19;;;;;;;16.20;2.38;;;;;;;30.51;27.97;98122.09;4797183;29;20176;-62
2023/04/21 09:06:51;;;;;;;14.73;2.95;;;;;;;30.45;25.63;98109.78;4807776;29;20137;-66
2023/04/21 09:10:25;;;;;;;8.35;2.70;;;;;;;30.24;27.95;98107.84;4786921;29;20842;-66
2023/04/21 09:13:11;;;;;;;18.63;2.75;;;;;;;30.28;27.34;98110.69;4818197;29;20047;-69
2023/04/21 09:15:48;;;;;;;8.40;1.92;;;;;;;30.36;26.55;98098.88;4790794;29;20059;-69
2023/04/21 09:18:45;;;;;;;12.23;2.30;;;;;;;30.30;25.35;98087.38;4795847;29;20042;-65
2023/04/21 09:21:47;;;;;;;13.68;2.75;;;;;;;30.24;27.63;98079.72;4814820;29;20231;-64
2023/04/21 09:24:56;;;;;;;9.10;3.10;;;;;;;30.27;27.66;98085.31;4791083;29;20049;-64
2023/04/21 09:31:05;;;;;;;11.50;2.78;;;;;;;30.04;27.88;98077.84;4802547;29;20372;-66
2023/04/21 09:33:35;;;;;;;12.27;3.08;;;;;;;30.22;28.03;98071.88;4789629;29;20074;-67
2023/04/21 09:36:27;;;;;;;13.75;2.67;;;;;;;30.08;28.25;98071.38;4803337;29;20150;-62
2023/04/21 09:39:02;;;;;;;9.82;2.70;;;;;;;30.20;27.42;98067.88;4802577;29;20059;-65
2023/04/21 09:45:12;;;;;;;8.60;2.38;;;;;;;30.22;25.27;98060.16;4802857;29;20842;-64
2023/04/21 09:47:54;;;;;;;9.73;2.33;;;;;;;30.11;23.25;98056.22;4803747;29;20061;-65
2023/04/21 09:50:26;;;;;;;10.93;2.03;;;;;;;30.14;24.14;98061.81;4806417;29;20058;-62
2023/04/21 09:53:22;;;;;;;8.00;2.00;;;;;;;30.23;25.96;98059.78;4823909;29;20142;-63
2023/04/21 09:55:56;;;;;;;14.70;2.65;;;;;;;30.22;26.66;98050.03;4824720;29;20057;-61
2023/04/21 09:58:30;;;;;;;7.50;2.50;;;;;;;30.19;25.81;98050.69;4809768;29;20054;-62
2023/04/21 10:01:00;;;;;;;11.23;2.30;;;;;;;30.30;25.27;98042.88;4823984;29;20046;-64
2023/04/21 10:03:31;;;;;;;7.28;2.08;;;;;;;30.35;25.28;98039.94;4824759;29;20053;-68
2023/04/21 10:07:04;;;;;;;13.15;2.30;;;;;;;30.39;26.44;98045.50;4823470;29;20126;-61
2023/04/21 10:10:01;;;;;;;7.90;2.03;;;;;;;30.13;23.32;98040.31;4810777;29;20370;-69
2023/04/21 10:12:33;;;;;;;8.45;2.00;;;;;;;30.11;23.02;98029.72;4823309;29;20787;-70
2023/04/21 10:15:05;;;;;;;9.23;1.85;;;;;;;30.06;23.46;98035.38;4825772;29;20049;-69
2023/04/21 10:17:38;;;;;;;9.35;2.20;;;;;;;29.88;22.85;98036.66;4824104;29;20454;-67
2023/04/21 10:20:09;;;;;;;11.73;2.15;;;;;;;29.86;23.73;98031.53;4811238;29;20050;-71
2023/04/21 10:22:42;;;;;;;7.30;2.17;;;;;;;30.02;24.20;98029.00;4812593;29;20054;-71
2023/04/21 10:25:13;;;;;;;;;;;;;;;30.08;23.36;98027.66;4825959;29;20200;-69
2023/04/21 10:27:43;;;;;;;6.50;2.00;;;;;;;30.17;24.34;98022.13;4827381;29;20579;-66
2023/04/21 10:30:22;;;;;;;8.00;1.95;;;;;;;30.09;23.82;98023.00;4829465;29;20763;-63
2023/04/21 10:33:04;;;;;;;8.25;2.28;;;;;;;30.18;23.13;98019.03;4814933;29;20069;-68
2023/04/21 10:36:00;;;;;;;9.30;3.08;;;;;;;30.24;23.72;98023.16;4822120;29;20051;-64
2023/04/21 10:38:35;;;;;;;11.70;2.40;;;;;;;30.22;25.95;98024.63;4827114;29;20046;-67
2023/04/21 10:41:36;;;;;;;9.98;2.10;;;;;;;30.12;24.75;98023.13;4826484;29;20559;-65
2023/04/21 10:44:18;;;;;;;12.07;2.40;;;;;;;29.94;26.79;98021.69;4799573;29;20436;-69
2023/04/21 10:46:50;;;;;;;6.82;1.98;;;;;;;30.00;26.05;98017.63;4829189;29;20050;-68
2023/04/21 10:49:25;;;;;;;5.53;2.00;;;;;;;30.07;27.02;98019.78;4830409;29;20058;-68
2023/04/21 10:54:36;;;;;;;16.67;3.13;;;;;;;30.03;26.87;98013.41;4813107;29;20061;-69
2023/04/21 10:57:08;;;;;;;11.95;2.50;;;;;;;29.97;25.65;98004.63;4828639;29;20061;-67
2023/04/21 10:59:38;;;;;;;9.40;2.10;;;;;;;29.96;26.87;98011.25;4813714;29;20077;-65
2023/04/21 11:02:12;;;;;;;8.48;2.03;;;;;;;29.82;26.29;98010.69;4830895;29;20050;-62
2023/04/21 11:04:48;;;;;;;7.30;2.10;;;;;;;29.85;27.42;98005.34;4826983;29;20130;-68
2023/04/21 11:08:21;;;;;;;11.45;1.98;;;;;;;29.84;27.67;98003.75;4794726;29;20477;-61
2023/04/21 11:11:28;;;;;;;13.75;2.00;;;;;;;29.72;26.50;98006.44;4826286;29;20348;-65
2023/04/21 11:14:00;;;;;;;8.07;2.65;;;;;;;29.63;25.63;97996.72;4812478;29;20053;-62
2023/04/21 11:17:33;;;;;;;7.10;2.08;;;;;;;29.67;27.47;98008.56;4827404;29;20057;-62
2023/04/21 11:20:05;;;;;;;13.40;2.13;;;;;;;29.70;26.65;98005.16;4828176;29;20061;-59
2023/04/21 11:22:37;;;;;;;8.68;2.22;;;;;;;29.71;25.54;98001.28;4826778;29;20153;-61
2023/04/21 11:25:17;;;;;;;16.38;3.08;;;;;;;29.70;27.13;97997.75;4824930;29;20056;-68
2023/04/21 11:27:58;;;;;;;10.00;2.20;;;;;;;29.70;26.55;98005.94;4824058;29;20061;-63
2023/04/21 11:30:33;;;;;;;7.70;2.38;;;;;;;29.57;26.02;98001.56;4825103;29;20064;-63
2023/04/21 11:33:03;;;;;;;12.15;2.10;;;;;;;29.59;27.13;98002.03;4829243;29;20061;-62
2023/04/21 11:35:34;;;;;;;9.98;2.28;;;;;;;29.50;27.41;97993.13;4830805;29;20066;-64
2023/04/21 11:38:05;;;;;;;6.93;2.53;;;;;;;29.48;29.09;98003.56;4816411;29;20065;-62
2023/04/21 11:40:48;;;;;;;8.75;2.40;;;;;;;29.46;27.39;97997.66;4833398;29;20555;-64
2023/04/21 11:43:19;;;;;;;;;;;;;;;29.46;26.89;98005.84;4829113;29;20062;-61
2023/04/21 11:45:50;;;;;;;10.85;2.40;;;;;;;29.43;29.56;98004.56;4826122;29;19943;-64
2023/04/21 11:48:19;;;;;;;12.82;2.40;;;;;;;29.38;27.14;98001.25;4831713;29;20064;-64
2023/04/21 11:50:50;;;;;;;8.95;2.15;;;;;;;29.34;26.63;98000.31;4814309;29;20065;-63
2023/04/21 11:53:20;;;;;;;14.07;2.38;;;;;;;29.29;26.15;98004.03;4818668;29;20058;-64
2023/04/21 11:55:50;;;;;;;9.68;2.33;;;;;;;29.29;24.42;98003.22;4814081;29;21321;-64
2023/04/21 11:58:20;;;;;;;10.43;2.40;;;;;;;29.26;26.04;98004.66;4809055;29;20090;-64
2023/04/21 12:00:51;;;;;;;5.78;1.90;;;;;;;29.20;26.80;98008.72;4828587;29;20070;-68
2023/04/21 12:03:25;;;;;;;8.07;2.22;;;;;;;29.11;27.32;98012.63;4809725;29;20057;-67
2023/04/21 12:05:57;;;;;;;14.18;2.42;;;;;;;29.05;25.34;98001.09;4813277;29;20058;-61
2023/04/21 12:08:31;;;;;;;9.48;2.28;;;;;;;29.05;26.82;98006.56;4818369;29;20050;-65
2023/04/21 12:11:02;;;;;;;8.45;2.55;;;;;;;29.03;27.26;98012.34;4813389;29;20057;-67
2023/04/21 12:13:32;;;;;;;11.55;2.20;;;;;;;29.01;26.62;98013.81;4808865;29;20122;-61
2023/04/21 12:16:03;;;;;;;10.80;2.40;;;;;;;28.96;27.06;98022.97;4817729;29;20070;-60
2023/04/21 12:18:33;;;;;;;8.48;2.35;;;;;;;28.88;26.67;98021.09;4812832;29;20139;-63
2023/04/21 12:21:05;;;;;;;7.97;1.92;;;;;;;28.91;24.49;98020.41;4809675;29;20365;-61
2023/04/21 12:23:34;;;;;;;10.73;2.28;;;;;;;28.89;25.03;98019.16;4819718;29;20069;-63
2023/04/21 12:26:04;;;;;;;8.90;2.30;;;;;;;28.86;25.52;98019.81;4471710;29;9999839;-62
2023/04/21 12:28:35;;;;;;;10.95;2.10;;;;;;;28.84;25.44;98019.34;4810799;29;20123;-61
2023/04/21 12:31:09;;;;;;;6.38;2.10;;;;;;;28.79;25.50;98019.53;4804540;29;20438;-66
2023/04/21 12:33:39;;;;;;;9.93;2.67;;;;;;;28.86;25.39;98022.53;4807912;29;20066;-60